aviador You're here:

KSKA Decoded Metar

SPOKANE in WA, USA
Report Time2017-10-19 20:58:00
UTC Time2017-10-19 22:01:25
Flight Rules vfr VFR
Wind200° at 11 kt
W.Decomp.*RWY 23: 7.6 kt HW 7.9 kt LCW
W.Rank200° ranks 1
Current wind is above 200° avg. (9.4)
Visibility9999 m
Phenomena:N/A
Clouds:Overcast 075 Hf
Expected CloudBase > 2,800 ft AGL from Temp-Dew spread
Ceiling7,500 ft
Temp13°C (ISA +3)
Dew Point06°C (63% RH)
AAT8.1°C
QNH1002 hPa
Density Alt3,310 ft
Elevation2,461 ft
Report Wrong Elevation
Raw Report
KSKA 192058Z AUTO 20011KT 10SM OVC075 13/06 A2958 RMK AO2 SLP016
T01330062 $=

Extra information for KSKA:More info

Metar Taf Metar & Taf Last 4 Metars F.Rules Stats Wind Profile Meteogram Temp Stats Airport Information Weather charts Add Link Nearby VenuesMetar ALERT Operation Metar Decoded Social comments

AIRNAV info for KSKA